ADDS METAR Data INFO
IDs: Format: Raw Decoded Include TAF

Data at: 0751 UTC 17 Oct 2017

KGHG 170735Z AUTO VRB06G13KT 10SM OVC043 08/02 A3017 RMK AO2
KGHG 170715Z AUTO 32009KT 10SM BKN042 08/02 A3017 RMK AO2
KGHG 170655Z AUTO 32007G16KT 250V040 10SM BKN039 08/02 A3016 RMK AO2
KGHG 170635Z AUTO 32008G14KT 290V350 10SM OVC035 08/02 A3016 RMK AO2
KGHG 170615Z AUTO VRB05G11KT 10SM BKN037 08/02 A3015 RMK AO2
KGHG 170555Z AUTO VRB06KT 10SM SCT036 08/02 A3015 RMK AO2
KGHG 170535Z AUTO 32007KT 270V020 10SM BKN034 08/02 A3015 RMK AO2
KGHG 170515Z AUTO 32008G15KT 280V360 10SM FEW032 08/02 A3015 RMK AO2
KGHG 170455Z AUTO 32007G17KT 280V340 10SM FEW060 08/02 A3015 RMK AO2
KGHG 170435Z AUTO VRB04G14KT 10SM BKN060 08/01 A3014 RMK AO2
KGHG 170415Z AUTO 33008G15KT 300V040 10SM OVC060 09/02 A3014 RMK AO2
KGHG 170355Z AUTO 34008G18KT 300V050 10SM OVC060 09/01 A3013 RMK AO2
KGHG 170335Z AUTO 32012G20KT 290V020 10SM OVC055 09/01 A3013 RMK AO2
KGHG 170315Z AUTO 33013G20KT 280V350 10SM BKN055 BKN065 09/01 A3013 RMK AO2
KGHG 170255Z AUTO 34010G17KT 310V030 10SM OVC055 10/02 A3012 RMK AO2
KGHG 170235Z AUTO 33008G18KT 280V010 10SM OVC050 10/02 A3012 RMK AO2
KGHG 170215Z AUTO VRB08G19KT 270V050 10SM OVC050 10/02 A3011 RMK AO2
KGHG 170155Z AUTO 33010G18KT 300V010 10SM OVC049 10/02 A3011 RMK AO2
KGHG 170135Z AUTO 33012G19KT 290V350 10SM BKN046 OVC055 11/02 A3010 RMK AO2
KGHG 170115Z AUTO 33010G19KT 270V010 10SM BKN043 OVC050 11/03 A3009 RMK AO2
KGHG 170055Z AUTO 34012G20KT 300V020 10SM FEW041 OVC049 11/02 A3008 RMK AO2
KGHG 170035Z AUTO 33014G19KT 320V020 10SM OVC045 11/03 A3007 RMK AO2
KGHG 170015Z AUTO 32007G17KT 290V010 10SM BKN041 OVC047 11/03 A3006 RMK AO2
KGHG 162355Z AUTO 32005G13KT 10SM BKN042 OVC047 12/04 A3005 RMK AO2
KGHG 162335Z AUTO 32005KT 10SM OVC043 12/04 A3005 RMK AO2
KGHG 162315Z AUTO 32008G14KT 10SM OVC044 12/04 A3004 RMK AO2
KGHG 162255Z AUTO 32008G14KT 10SM OVC043 12/04 A3003 RMK AO2
KGHG 162235Z AUTO VRB06KT 10SM OVC042 12/04 A3001 RMK AO2
KGHG 162215Z AUTO VRB06G11KT 10SM BKN041 12/05 A3000 RMK AO2
KGHG 162155Z AUTO VRB05G10KT 10SM BKN041 12/05 A3000 RMK AO2
KGHG 162135Z AUTO VRB04KT 10SM CLR 12/05 A2999 RMK AO2
KGHG 162115Z AUTO 33007KT 10SM FEW039 12/05 A2999 RMK AO2
KGHG 162055Z AUTO VRB04G13KT 10SM SCT038 12/05 A2998 RMK AO2
KGHG 162035Z AUTO 31005KT 10SM CLR 13/05 A2998 RMK AO2
KGHG 162015Z AUTO VRB04G13KT 10SM CLR 13/05 A2996 RMK AO2
KGHG 161955Z AUTO 33010G17KT 290V010 10SM CLR 13/05 A2997 RMK AO2
KGHG 161935Z AUTO 33008G13KT 300V030 10SM CLR 13/05 A2994 RMK AO2
KGHG 161915Z AUTO 34009G15KT 300V030 10SM CLR 13/05 A2994 RMK AO2
KGHG 161855Z AUTO 34007G14KT 320V040 10SM CLR 14/06 A2995 RMK AO2
KGHG 161835Z AUTO 34008G17KT 300V040 10SM CLR 14/06 A2992 RMK AO2
KGHG 161815Z AUTO 35007G15KT 310V070 10SM CLR 14/06 A2992 RMK AO2
KGHG 161755Z AUTO 33008G16KT 290V010 10SM CLR 14/07 A2993 RMK AO2
KGHG 161735Z AUTO VRB06G15KT 10SM SCT043 SCT100 15/07 A2992 RMK AO2
KGHG 161715Z AUTO VRB05G16KT 10SM BKN043 BKN100 15/08 A2993 RMK AO2
KGHG 161655Z AUTO 35007G15KT 320V060 10SM SCT036 SCT046 BKN095 16/08 A2992 RMK AO2
KGHG 161635Z AUTO 32006KT 10SM OVC035 16/08 A2992 RMK AO2
KGHG 161615Z AUTO VRB04G14KT 10SM OVC036 16/08 A2992 RMK AO2
KGHG 161555Z AUTO 33006G12KT 10SM OVC036 16/09 A2990 RMK AO2
KGHG 161535Z AUTO 33008KT 310V020 10SM BKN034 17/09 A2991 RMK AO2
KGHG 161515Z AUTO VRB05G11KT 10SM OVC030 17/10 A2991 RMK AO2
KGHG 161455Z AUTO VRB06G13KT 10SM BKN031 BKN075 17/10 A2991 RMK AO2
KGHG 161435Z AUTO VRB05KT 10SM SCT033 17/10 A2989 RMK AO2
KGHG 161415Z AUTO 00000G10KT 10SM CLR 17/10 A2985 RMK AO2
KGHG 161355Z AUTO 30008KT 260V320 10SM CLR 17/10 A2988 RMK AO2
KGHG 161335Z AUTO VRB06G11KT 10SM CLR 17/11 A2989 RMK AO2
KGHG 161315Z AUTO VRB05G11KT 10SM CLR 17/11 A2987 RMK AO2
KGHG 161255Z AUTO 29007G13KT 250V320 10SM CLR 17/10 A2985 RMK AO2
KGHG 161235Z AUTO VRB04G11KT 10SM CLR 17/11 A2984 RMK AO2
KGHG 161215Z AUTO 29007KT 250V330 10SM FEW060 FEW120 17/11 A2983 RMK AO2
KGHG 161155Z AUTO 30007G13KT 260V320 10SM FEW065 FEW120 18/11 A2982 RMK AO2
KGHG 161135Z AUTO 29007G17KT 250V320 10SM SCT120 18/12 A2981 RMK AO2
KGHG 161115Z AUTO VRB04KT 10SM FEW047 FEW065 SCT110 18/14 A2979 RMK AO2
KGHG 161055Z AUTO VRB05KT 10SM FEW060 FEW080 18/14 A2978 RMK AO2
KGHG 161035Z AUTO VRB04KT 10SM FEW046 FEW060 BKN080 18/15 A2979 RMK AO2
KGHG 161015Z AUTO VRB05KT 10SM SCT033 BKN043 OVC075 18/15 A2978 RMK AO2
KGHG 160955Z AUTO VRB05G11KT 8SM FEW023 SCT030 BKN043 19/15 A2978 RMK AO2
KGHG 160935Z AUTO VRB05KT 10SM OVC030 19/15 A2977 RMK AO2
KGHG 160915Z AUTO 27007G14KT 230V310 10SM BKN026 OVC031 20/15 A2976 RMK AO2
KGHG 160855Z AUTO 29009KT 250V320 10SM -DZ OVC025 20/16 A2974 RMK AO2
KGHG 160835Z AUTO VRB05G12KT 10SM FEW013 OVC024 21/17 A2974 RMK AO2
KGHG 160815Z AUTO VRB06G13KT 10SM SCT014 OVC021 21/19 A2974 RMK AO2
KGHG 160755Z AUTO 24005KT 10SM OVC020 21/19 A2973 RMK AO2
KGHG 160735Z AUTO VRB06G11KT 10SM OVC024 21/19 A2972 RMK AO2
KGHG 160715Z AUTO 23007G15KT 200V260 10SM SCT025 BKN029 OVC034 21/18 A2972 RMK AO2
KGHG 160655Z AUTO 23006KT 10SM SCT034 BKN070 BKN080 21/18 A2973 RMK AO2
KGHG 160635Z AUTO VRB06G12KT 220V290 10SM FEW019 SCT024 BKN070 21/18 A2974 RMK AO2
KGHG 160615Z AUTO VRB05G16KT 10SM OVC018 21/18 A2975 RMK AO2
KGHG 160555Z AUTO 24010G19KT 200V260 10SM OVC018 21/18 A2975 RMK AO2
KGHG 160535Z AUTO 23010G25KT 10SM BKN018 21/18 A2973 RMK AO2
KGHG 160515Z AUTO 22012G29KT 200V260 10SM BKN017 21/18 A2973 RMK AO2
KGHG 160455Z AUTO 22014G22KT 10SM BKN016 OVC020 21/18 A2973 RMK AO2
KGHG 160435Z AUTO 23013G22KT 10SM OVC016 21/18 A2973 RMK AO2
KGHG 160415Z AUTO 22013G28KT 10SM OVC016 21/18 A2973 RMK AO2
KGHG 160355Z AUTO 23013G23KT 10SM OVC016 21/18 A2973 RMK AO2
KGHG 160340Z AUTO 23016G27KT 10SM OVC016 21/18 A2973 RMK AO2
KGHG 160315Z AUTO 21019G27KT 10SM OVC015 20/18 A2973 RMK AO2
KGHG 160255Z AUTO 23014G28KT 10SM OVC015 21/18 A2975 RMK AO2
KGHG 160235Z AUTO 22013G20KT 180V270 10SM OVC015 21/18 A2975 RMK AO2
KGHG 160215Z AUTO 22015G25KT 190V250 10SM OVC014 21/18 A2975 RMK AO2
KGHG 160155Z AUTO 22016G26KT 190V260 10SM OVC016 21/18 A2975 RMK AO2
KGHG 160135Z AUTO 22011G25KT 10SM BKN016 OVC020 21/18 A2975 RMK AO2
KGHG 160115Z AUTO 22019G30KT 10SM OVC016 20/18 A2975 RMK AO2
KGHG 160055Z AUTO 21012G21KT 10SM OVC015 20/18 A2974 RMK AO2
KGHG 160035Z AUTO 23017G26KT 10SM OVC015 20/18 A2975 RMK AO2
KGHG 160015Z AUTO 23010G26KT 200V260 10SM OVC015 21/18 A2976 RMK AO2
KGHG 152355Z AUTO 21017G28KT 10SM OVC015 21/18 A2977 RMK AO2
KGHG 152335Z AUTO 22012G22KT 10SM OVC016 20/18 A2978 RMK AO2
KGHG 152315Z AUTO 22009G23KT 10SM BKN015 20/18 A2978 RMK AO2
KGHG 152255Z AUTO 21011G21KT 10SM BKN015 20/18 A2978 RMK AO2
KGHG 152235Z AUTO 22015G22KT 180V240 10SM OVC014 21/19 A2978 RMK AO2
KGHG 152215Z AUTO 21013G20KT 10SM OVC015 21/19 A2979 RMK AO2
KGHG 152155Z AUTO 22009G22KT 10SM OVC015 21/19 A2979 RMK AO2 P0001
KGHG 152135Z AUTO 22013G19KT 10SM OVC014 21/19 A2980 RMK AO2
KGHG 152115Z AUTO 22012G22KT 10SM BKN013 BKN021 21/20 A2981 RMK AO2
KGHG 152055Z AUTO 22013G22KT 10SM BKN014 OVC020 21/20 A2981 RMK AO2
KGHG 152035Z AUTO 21016G22KT 10SM BKN015 OVC021 22/20 A2982 RMK AO2
KGHG 152015Z AUTO 21011G27KT 190V260 10SM OVC017 22/20 A2983 RMK AO2
KGHG 151955Z AUTO 23009G20KT 200V260 10SM BKN017 BKN023 23/20 A2984 RMK AO2